createdAt,value
2023-01-13T00:00:48.113Z,101415.46
2023-01-13T00:03:14.976Z,101413.69
2023-01-13T00:05:41.759Z,101414.54
2023-01-13T00:08:08.533Z,101416.07
2023-01-13T00:10:35.755Z,101414.69
2023-01-13T00:13:03.671Z,101419.29
2023-01-13T00:15:30.543Z,101418.78
2023-01-13T00:17:57.264Z,101418.89
2023-01-13T00:20:24.002Z,101423.46
2023-01-13T00:22:50.761Z,101420.71
2023-01-13T00:25:17.632Z,101423.78
2023-01-13T00:27:44.401Z,101423.34
2023-01-13T00:30:11.621Z,101422.64
2023-01-13T00:32:38.400Z,101421.00
2023-01-13T00:35:05.660Z,101421.91
2023-01-13T00:37:32.452Z,101422.48
2023-01-13T00:39:59.181Z,101419.96
2023-01-13T00:42:44.796Z,101415.91
2023-01-13T00:45:11.601Z,101419.00
2023-01-13T00:47:38.344Z,101419.55
2023-01-13T00:50:05.461Z,101414.25
2023-01-13T00:52:33.281Z,101412.91
2023-01-13T00:55:01.017Z,101412.03
2023-01-13T00:57:27.789Z,101411.87
2023-01-13T00:59:54.537Z,101407.39
2023-01-13T01:02:21.402Z,101407.58
2023-01-13T01:04:48.589Z,101411.17
2023-01-13T01:07:15.348Z,101410.02
2023-01-13T01:09:42.106Z,101405.11
2023-01-13T01:12:08.853Z,101403.27
2023-01-13T01:14:35.572Z,101397.36
2023-01-13T01:17:02.341Z,101398.74
2023-01-13T01:19:29.120Z,101400.98
2023-01-13T01:21:55.864Z,101395.49
2023-01-13T01:24:22.606Z,101391.73
2023-01-13T01:26:49.354Z,101390.86
2023-01-13T01:29:16.736Z,101386.05
2023-01-13T01:31:43.729Z,101388.03
2023-01-13T01:34:10.568Z,101386.80
2023-01-13T01:36:37.396Z,101387.46
2023-01-13T01:39:04.270Z,101380.30
2023-01-13T01:41:32.322Z,101374.48
2023-01-13T01:44:07.296Z,101369.31
2023-01-13T01:46:41.085Z,101368.14
2023-01-13T01:49:21.768Z,101362.23
2023-01-13T01:51:51.572Z,101360.80
2023-01-13T01:54:28.935Z,101364.00
2023-01-13T01:56:55.743Z,101365.71
2023-01-13T01:59:25.572Z,101361.10
2023-01-13T02:01:55.621Z,101362.27
2023-01-13T02:04:28.486Z,101361.45
2023-01-13T02:06:55.157Z,101357.44
2023-01-13T02:09:21.936Z,101355.89
2023-01-13T02:12:07.531Z,101356.74
2023-01-13T02:14:34.461Z,101360.67
2023-01-13T02:17:29.459Z,101362.67
2023-01-13T02:20:34.235Z,101359.69
2023-01-13T02:23:41.248Z,101361.35
2023-01-13T02:26:29.443Z,101359.61
2023-01-13T02:29:21.336Z,101361.55
2023-01-13T02:31:48.330Z,101353.44
2023-01-13T02:34:26.040Z,101353.80
2023-01-13T02:37:04.544Z,101354.84
2023-01-13T02:39:50.099Z,101350.75
2023-01-13T02:42:47.408Z,101351.92
2023-01-13T02:45:34.200Z,101351.23
2023-01-13T02:48:01.071Z,101351.26
2023-01-13T02:50:43.457Z,101353.40
2023-01-13T02:53:59.812Z,101351.45
2023-01-13T02:56:26.558Z,101349.59
2023-01-13T02:58:54.071Z,101347.26
2023-01-13T03:01:21.007Z,101346.58
2023-01-13T03:03:50.006Z,101342.77
2023-01-13T03:06:16.698Z,101338.66
2023-01-13T03:08:47.769Z,101336.30
2023-01-13T03:11:16.373Z,101337.88
2023-01-13T03:14:04.510Z,101339.56
2023-01-13T03:16:50.390Z,101338.16
2023-01-13T03:19:37.366Z,101337.92
2023-01-13T03:22:13.911Z,101336.75
2023-01-13T03:24:43.241Z,101338.56
2023-01-13T03:27:18.995Z,101336.84
2023-01-13T03:29:55.095Z,101340.38
2023-01-13T03:32:34.365Z,101335.70
2023-01-13T03:35:07.316Z,101330.92
2023-01-13T03:37:36.278Z,101330.52
2023-01-13T03:40:18.958Z,101330.85
2023-01-13T03:43:06.897Z,101339.44
2023-01-13T03:45:34.659Z,101341.55
2023-01-13T03:48:03.485Z,101343.73
2023-01-13T03:50:33.094Z,101344.67
2023-01-13T03:53:10.048Z,101343.99
2023-01-13T03:55:40.167Z,101342.09
2023-01-13T03:58:14.387Z,101335.64
2023-01-13T04:00:52.127Z,101334.52
2023-01-13T04:03:41.338Z,101333.98
2023-01-13T04:06:17.069Z,101334.34
2023-01-13T04:09:11.917Z,101334.52
2023-01-13T04:11:44.313Z,101336.83
2023-01-13T04:14:11.530Z,101333.34
2023-01-13T04:16:38.292Z,101331.86
2023-01-13T04:19:05.002Z,101330.54
2023-01-13T04:21:31.675Z,101331.79
2023-01-13T04:23:58.380Z,101331.48
2023-01-13T04:26:25.108Z,101325.52
2023-01-13T04:28:54.753Z,101326.00
2023-01-13T04:31:21.626Z,101324.40
2023-01-13T04:33:48.396Z,101328.14
2023-01-13T04:36:15.795Z,101329.29
2023-01-13T04:38:42.560Z,101334.35
2023-01-13T04:41:09.377Z,101335.94
2023-01-13T04:43:36.043Z,101334.30
2023-01-13T04:46:02.965Z,101338.44
2023-01-13T04:48:29.672Z,101338.44
2023-01-13T04:50:56.368Z,101336.27
2023-01-13T04:53:23.075Z,101334.23
2023-01-13T04:55:49.858Z,101334.79
2023-01-13T04:58:16.675Z,101337.72
2023-01-13T05:00:43.537Z,101336.02
2023-01-13T05:03:10.423Z,101335.83
2023-01-13T05:05:38.049Z,101335.25
2023-01-13T05:08:05.345Z,101338.30
2023-01-13T05:10:32.132Z,101337.63
2023-01-13T05:13:17.807Z,101335.43
2023-01-13T05:16:06.343Z,101334.82
2023-01-13T05:18:33.388Z,101343.41
2023-01-13T05:21:00.118Z,101347.42
2023-01-13T05:23:46.155Z,101350.52
2023-01-13T05:26:13.259Z,101351.05
2023-01-13T05:28:40.020Z,101354.67
2023-01-13T05:31:06.762Z,101353.66
2023-01-13T05:33:35.728Z,101350.11
2023-01-13T05:36:02.973Z,101349.33
2023-01-13T05:38:29.712Z,101347.30
2023-01-13T05:41:18.245Z,101351.05
2023-01-13T05:43:45.049Z,101349.89
2023-01-13T05:46:12.102Z,101353.02
2023-01-13T05:48:40.846Z,101350.13
2023-01-13T05:51:09.218Z,101353.02
2023-01-13T05:53:36.130Z,101347.03
2023-01-13T05:56:06.580Z,101347.05
2023-01-13T05:58:33.344Z,101349.44
2023-01-13T06:01:01.494Z,101353.75
2023-01-13T06:03:28.236Z,101355.88
2023-01-13T06:05:59.299Z,101356.79
2023-01-13T06:08:26.089Z,101358.31
2023-01-13T06:10:52.939Z,101361.77
2023-01-13T06:13:19.738Z,101353.22
2023-01-13T06:15:46.565Z,101358.99
2023-01-13T06:18:13.379Z,101363.45
2023-01-13T06:20:40.127Z,101362.14
2023-01-13T06:23:09.023Z,101365.44
2023-01-13T06:26:01.203Z,101364.98
2023-01-13T06:28:27.979Z,101364.29
2023-01-13T06:30:57.219Z,101360.73
2023-01-13T06:33:27.532Z,101362.46
2023-01-13T06:35:56.596Z,101358.41
2023-01-13T06:38:23.782Z,101355.89
2023-01-13T06:40:50.488Z,101357.33
2023-01-13T06:43:17.651Z,101357.36
2023-01-13T06:45:55.053Z,101354.62
2023-01-13T06:48:23.685Z,101355.27
2023-01-13T06:50:50.397Z,101353.39
2023-01-13T06:53:17.199Z,101353.73
2023-01-13T06:55:44.176Z,101357.36
2023-01-13T06:58:10.941Z,101360.70
2023-01-13T07:00:37.789Z,101356.86
2023-01-13T07:03:12.563Z,101357.10
2023-01-13T07:05:39.593Z,101361.90
2023-01-13T07:08:06.721Z,101359.38
2023-01-13T07:10:33.562Z,101362.47
2023-01-13T07:13:20.171Z,101361.32
2023-01-13T07:16:16.528Z,101359.95
2023-01-13T07:18:43.291Z,101360.86
2023-01-13T07:21:13.292Z,101364.66
2023-01-13T07:23:41.007Z,101369.98
2023-01-13T07:26:08.546Z,101369.67
2023-01-13T07:28:35.591Z,101373.81
2023-01-13T07:31:02.311Z,101372.14
2023-01-13T07:33:33.112Z,101373.56
2023-01-13T07:36:01.710Z,101373.63
2023-01-13T07:38:28.511Z,101374.52
2023-01-13T07:40:55.195Z,101374.18
2023-01-13T07:43:34.399Z,101369.61
2023-01-13T07:46:05.991Z,101369.14
2023-01-13T07:48:33.781Z,101370.06
2023-01-13T07:51:05.827Z,101368.08
2023-01-13T07:53:32.772Z,101372.37
2023-01-13T07:55:59.898Z,101376.10
2023-01-13T07:58:26.763Z,101379.05
2023-01-13T08:00:54.591Z,101377.20
2023-01-13T08:03:22.598Z,101384.70
2023-01-13T08:05:49.449Z,101376.01
2023-01-13T08:08:16.336Z,101381.83
2023-01-13T08:10:43.119Z,101381.16
2023-01-13T08:13:21.073Z,101386.48
2023-01-13T08:15:52.955Z,101390.38
2023-01-13T08:18:22.129Z,101389.83
2023-01-13T08:20:49.371Z,101385.54
2023-01-13T08:23:16.823Z,101386.23
2023-01-13T08:25:43.591Z,101382.45
2023-01-13T08:28:10.592Z,101383.17
2023-01-13T08:30:37.405Z,101376.21
2023-01-13T08:33:07.469Z,101373.52
2023-01-13T08:35:39.036Z,101373.72
2023-01-13T08:38:05.868Z,101372.40
2023-01-13T08:40:33.026Z,101366.40
2023-01-13T08:43:00.006Z,101362.14
2023-01-13T08:45:26.856Z,101361.84
2023-01-13T08:47:53.584Z,101360.23
2023-01-13T08:50:20.405Z,101358.58
2023-01-13T08:52:47.148Z,101363.48
2023-01-13T08:55:13.843Z,101361.25
2023-01-13T08:57:40.592Z,101365.40
2023-01-13T09:00:08.399Z,101357.41
2023-01-13T09:02:35.230Z,101356.77
2023-01-13T09:05:03.993Z,101357.63
2023-01-13T09:07:31.272Z,101360.25
2023-01-13T09:09:58.035Z,101356.64
2023-01-13T09:12:43.523Z,101360.05
2023-01-13T09:15:10.703Z,101351.00
2023-01-13T09:17:37.399Z,101346.70
2023-01-13T09:20:05.474Z,101344.61
2023-01-13T09:22:32.244Z,101344.64
2023-01-13T09:24:58.971Z,101341.44
2023-01-13T09:27:25.707Z,101341.45
2023-01-13T09:29:52.499Z,101339.79
2023-01-13T09:32:19.302Z,101338.65
2023-01-13T09:35:01.447Z,101337.68
2023-01-13T09:37:37.591Z,101337.77
2023-01-13T09:40:19.292Z,101338.00
2023-01-13T09:43:08.423Z,101333.59
2023-01-13T09:45:47.777Z,101333.34
2023-01-13T09:48:23.599Z,101334.42
2023-01-13T09:51:06.977Z,101340.34
2023-01-13T09:53:39.182Z,101337.88
2023-01-13T09:56:06.274Z,101333.84
2023-01-13T09:58:33.065Z,101330.98
2023-01-13T10:01:06.139Z,101327.06
2023-01-13T10:03:33.407Z,101321.90
2023-01-13T10:06:20.176Z,101318.71
2023-01-13T13:43:17.422Z,101278.14
2023-01-13T15:06:24.249Z,101269.08
2023-01-13T16:22:32.540Z,101271.98
2023-01-13T16:52:41.056Z,101268.08
2023-01-13T18:18:43.255Z,101248.86
2023-01-13T20:06:16.549Z,101250.41
2023-01-13T21:23:50.327Z,101265.27
2023-01-13T21:41:59.717Z,101256.60
2023-01-13T22:54:49.754Z,101238.42
2023-01-13T23:22:01.344Z,101223.00
